Tampa, FL

5:43 AM EDT on July 30, 2015 (GMT -0400)
Ballast Point (South) | | Change Station
CLOSE
Current Station
Personal Weather Station
Location: Tampa, FL
Elevation: 10 ft
Nearby Weather Stations
Active Advisory: Areal Flood Watch

Elev 10 ft 27.88 °N, 82.49 °W | Updated 2 minutes ago

Clear
Clear
75.0 °F
Feels Like 73 °F
N
0.0
Wind Variable Wind from ENE
Gusts 0.0 mph

Today
High -- | Low -- °F
--% Chance of Precip.
Yesterday
High -- | Low -- °F
Precip. -- in
6:51 AM 8:21 PM
Waxing Gibbous, 98% visible
Pressure 29.97 in
Visibility 10.0 miles
Clouds Clear
Heat Index 73 °F
Dew Point 74 °F
Humidity 98%
Rainfall 0.00 in
Snow Depth Not available.
UV 0 out of 12
Pollen .90 out of 12
Air Quality Not available.
Flu Activity Not available.
METAR KMCF 300858Z AUTO 23001KT 10SM CLR 24/24 A2996 RMK AO2 SLP148 T02400240 57007

More Conditions Fewer Conditions

Pressure 29.97 in
Visibility 10.0 miles
Clouds Clear
Heat Index 73 °F
Dew Point 74 °F
Humidity 98%
Rainfall 0.00 in
Snow Depth Not available.
UV 0 out of 12
Pollen .90 out of 12
Air Quality Not available.
Flu Activity Not available.
METAR KMCF 300858Z AUTO 23001KT 10SM CLR 24/24 A2996 RMK AO2 SLP148 T02400240 57007

More Conditions Fewer Conditions

10-Day Weather Forecast

×

Almanac

Astronomy

Jul. 30, 2015 Rise Set
Actual Time
Civil Twilight
Nautical Twilight
Astronomical Twilight
Moon
Length of Visible Light
Length of Day
Tomorrow will be .
, % of the Moon is Illuminated

Today's Extremes

State Highs State Lows

Community

WunderPhotos

Upload Photos

1,842,320 photos uploaded!

WunderBlogs® & News

Nearby

Air Quality

  Air Quality AQ Index Pollutant
Not available.

Snow Depth

Station Depth Elevation

Earthquake Activity

City Distance Mag. Time & Date
Minimum magnitude displayed is 2.5.

Coastal Water Temperatures

Place Temperature

Stations

Nearby Weather Stations

Station Location Temp. Windchill Dew Point Humidity Wind Precip. Elev Updated Type
                   
Areal Flood Watch
Statement as of 4:07 AM EDT on July 30, 2015

... Flood Watch remains in effect through this evening...

The Flood Watch continues for

* portions of FL and west central Florida... including the
following in FL... coastal ... Hillsborough... coastal Pasco...
inland Hillsborough and inland Pasco. In west central
Florida... Pinellas.

* Through this evening

* if possible... clear drainage systems of any debris which may
become clogged in flooding rains.

* Saturated soils and the potential for additional heavy rainfall will
continue the threat of flooding across the region today.

Precautionary/preparedness actions...

A Flood Watch means that flooding is possible during the next
24 to 36 hours. Residents living in flood prone areas should take
action to protect property.